Gore, Ethiopia
Current Conditions -  °F | °C
As of 5:00 PM on Thursday 30 Oct 2014 (Local Time) from HAAB Reporting Station
Few Clouds Few Clouds  
Wind Chill: 72°   Ceiling: Unl
Heat Index: 72°   Visibility: 6mi
Dew Point: 45°   Wind: 16mph
Humidity: 38%   Direction: 80°E
Pressure: 30.27"   Gusts: NA
Location:  8.15°N, 35.54°E
Report Text: HAAB 301400Z 08014KT 9999 FEW025 22/07 Q1025
Loading
Personal Weather Stations






























Interactive Weather Map
Tropical Storm Tracking
New forecast layout! Learn more

10-Day Weather Forecast

Advertisements
Track Severe Weather on mobile